Terminal Aerodrome Forecast
Issued by NWS Green Bay, WI

Home | Current Version | Previous Version | Graphics & Text | Print | Product List | Glossary On
Versions: 1 2 3 4 5 6 7 8 9 10 11 12 13 14 15 16 17 18 19 20 21 22 23 24 25 26 27 28 29 30 31 32 33 34 35 36
000
FTUS43 KGRB 301700
TAFGRB
TAF
KGRB 301727Z 3018/0118 04007KT P6SM OVC015
     FM302300 07005KT P6SM BKN020
      TEMPO 3023/0103 SCT020 SCT250
     FM010500 VRB03KT 5SM BR SCT008 OVC015
      TEMPO 0109/0113 2SM BR BKN008
     FM011500 15006KT P6SM BKN020 OVC040=

USA.gov is the U.S. government's official web portal to all federal, state and local government web resources and services.